メインページ
METAR-TAF:

METAR-TAF

空港 :

コロール, Babelthuap Island, パラオ

ロマン・トメトゥチェル国際空港

緯度: 07-22N, 経度: 134-32E, 海抜: 54m

現時点の気象観測

当レポートは1時間24分前の23:50(UTC)に作成
の風 5kt
気温 30°C
湿度 75%
気圧 1011 hPa
視程: 24.1km
高度1600ftの雲は散在している, 塔状積雲.
高度12000ftの千切れ雲あり
高度30000ftの千切れ雲あり

METAR: PTRO 222350Z 09005KT 15SM SCT016TCU BKN120 BKN300 30/25 A2986 RMK TCU VC ALQDS

時間: 10:14 (01:14 UTC)

予報

当レポートは1時間44分前の23:30(UTC)に作成
予報は23日の 00時(UTC)から 23日の 24時(UTC)まで有効
の風 8kt
視程: 10km
高度1600ftの雲はほとんどない
高度16000ftの千切れ雲あり
近辺でにわか雨

TAF: PTRO 222330Z 2300/2324 09008KT P6SM VCSH FEW016 BKN160

4,000以上の空港の気象観測と天気予報(METAR報とTAF報)

利用可能な観測所は地図上に黄色い丸と赤い丸で示す。

丸の上にカーソルを重ねると観測所名を参照できる。

次にクリックすると気象観測と天気予報を参照できる。

マップの切り替え:黒色「×」印の緑ボタンをクリックして拡大、「-」印の緑ボタンをクリックして縮小、緑色の三角印をクリックして隣りの地図に切り替え


METAR-TAF: